Time;durP1;ratioP1;P1;durP2;ratioP2;P2;SDS_P1;SDS_P2;PMS_P1;PMS_P2;Temp;Humidity;BMP_temperature;BMP_pressure;BME280_temperature;BME280_humidity;BME280_pressure;Samples;Min_cycle;Max_cycle;Signal;HPM_P1;HPM_P2
2023/04/11 00:02:39;;;;;;;20.15;14.43;;;;;;;;;;5137184;27;20072;-74
2023/04/11 00:05:30;;;;;;;21.75;13.98;;;;;;;;;;5137874;27;20034;-74
2023/04/11 00:08:15;;;;;;;23.27;15.23;;;;;;;;;;5137075;27;20122;-74
2023/04/11 00:11:01;;;;;;;21.98;14.75;;;;;;;;;;5123510;27;20409;-74
2023/04/11 00:13:47;;;;;;;25.15;16.50;;;;;;;;;;5122097;27;20018;-75
2023/04/11 00:16:33;;;;;;;22.70;15.75;;;;;;;;;;5121044;27;20405;-75
2023/04/11 00:19:22;;;;;;;26.15;17.63;;;;;;;;;;5122311;27;20022;-74
2023/04/11 00:22:08;;;;;;;27.63;18.85;;;;;;;;;;5122647;27;20057;-73
2023/04/11 00:24:54;;;;;;;31.35;20.27;;;;;;;;;;5136195;27;20027;-76
2023/04/11 00:27:39;;;;;;;28.38;19.42;;;;;;;;;;5136989;27;20038;-73
2023/04/11 00:30:25;;;;;;;30.17;19.63;;;;;;;;;;5122513;27;20015;-74
2023/04/11 00:33:11;;;;;;;33.28;19.88;;;;;;;;;;5135745;27;20019;-74
2023/04/11 00:35:56;;;;;;;28.42;18.92;;;;;;;;;;5137131;27;20020;-74
2023/04/11 00:38:43;;;;;;;27.92;18.67;;;;;;;;;;5137104;27;20102;-74
2023/04/11 00:41:29;;;;;;;27.25;17.70;;;;;;;;;;5136799;27;20031;-73
2023/04/11 00:44:14;;;;;;;27.83;18.13;;;;;;;;;;5122651;27;20015;-74
2023/04/11 00:47:01;;;;;;;27.30;17.67;;;;;;;;;;5136792;27;20377;-74
2023/04/11 00:49:46;;;;;;;25.33;17.33;;;;;;;;;;5137226;27;20027;-75
2023/04/11 00:52:33;;;;;;;25.90;17.65;;;;;;;;;;5136131;27;20455;-74
2023/04/11 00:55:19;;;;;;;25.60;17.42;;;;;;;;;;5136591;27;20031;-74
2023/04/11 00:58:05;;;;;;;25.92;17.38;;;;;;;;;;5136512;27;20087;-74
2023/04/11 01:00:51;;;;;;;29.17;17.83;;;;;;;;;;5135972;27;20030;-73
2023/04/11 01:03:37;;;;;;;26.52;17.50;;;;;;;;;;5135861;27;20023;-74
2023/04/11 01:06:23;;;;;;;25.40;17.63;;;;;;;;;;5136536;27;20018;-73
2023/04/11 01:09:09;;;;;;;29.95;19.13;;;;;;;;;;5135239;27;20042;-74
2023/04/11 01:11:55;;;;;;;27.08;18.48;;;;;;;;;;5135779;27;20102;-74
2023/04/11 01:14:40;;;;;;;29.23;17.60;;;;;;;;;;5134709;27;20015;-73
2023/04/11 01:17:26;;;;;;;27.23;18.92;;;;;;;;;;5135512;27;20019;-76
2023/04/11 01:20:12;;;;;;;28.95;18.27;;;;;;;;;;5121081;27;20023;-74
2023/04/11 01:23:00;;;;;;;27.63;18.63;;;;;;;;;;5135061;27;20026;-74
2023/04/11 01:25:45;;;;;;;29.40;19.58;;;;;;;;;;5120979;27;20023;-74
2023/04/11 01:28:31;;;;;;;30.27;19.13;;;;;;;;;;5135499;27;20052;-73
2023/04/11 01:31:16;;;;;;;30.20;18.23;;;;;;;;;;5121856;27;20062;-74
2023/04/11 01:34:03;;;;;;;27.10;18.83;;;;;;;;;;5135227;27;20019;-73
2023/04/11 01:36:48;;;;;;;27.85;18.80;;;;;;;;;;5135608;27;20066;-73
2023/04/11 01:39:34;;;;;;;30.75;20.48;;;;;;;;;;5120818;27;20472;-74
2023/04/11 01:42:21;;;;;;;35.20;21.83;;;;;;;;;;5134845;27;20018;-74
2023/04/11 01:45:06;;;;;;;35.90;22.95;;;;;;;;;;5135710;27;20119;-74
2023/04/11 01:47:55;;;;;;;31.13;21.30;;;;;;;;;;5135236;27;20034;-75
2023/04/11 01:50:41;;;;;;;30.67;20.98;;;;;;;;;;5135066;27;20023;-74
2023/04/11 01:53:26;;;;;;;32.30;21.20;;;;;;;;;;5121426;27;20019;-74
2023/04/11 01:56:13;;;;;;;31.98;21.27;;;;;;;;;;5135634;27;20065;-74
2023/04/11 01:58:58;;;;;;;36.83;22.98;;;;;;;;;;5135418;27;20023;-72
2023/04/11 02:01:44;;;;;;;34.08;21.98;;;;;;;;;;5138642;27;20064;-72
2023/04/11 02:04:30;;;;;;;37.50;22.15;;;;;;;;;;5138214;27;20482;-73
2023/04/11 02:07:15;;;;;;;33.28;21.90;;;;;;;;;;5136562;27;20051;-74
2023/04/11 02:10:01;;;;;;;36.20;23.38;;;;;;;;;;5136393;27;20034;-74
2023/04/11 02:12:46;;;;;;;38.72;23.38;;;;;;;;;;5134374;27;20113;-74
2023/04/11 02:15:32;;;;;;;36.10;22.77;;;;;;;;;;5134508;27;20088;-74
2023/04/11 02:18:17;;;;;;;37.45;23.50;;;;;;;;;;5120946;27;20410;-74
2023/04/11 02:21:04;;;;;;;35.15;23.05;;;;;;;;;;5121345;27;20447;-73
2023/04/11 02:23:50;;;;;;;36.55;23.90;;;;;;;;;;5135327;27;20026;-74
2023/04/11 02:26:35;;;;;;;38.22;23.92;;;;;;;;;;5134725;28;20015;-73
2023/04/11 02:29:21;;;;;;;38.75;24.90;;;;;;;;;;5135218;28;20023;-73
2023/04/11 02:32:06;;;;;;;42.67;25.75;;;;;;;;;;5134978;28;20091;-75
2023/04/11 02:34:52;;;;;;;38.50;25.15;;;;;;;;;;5134381;28;20015;-74
2023/04/11 02:37:38;;;;;;;39.05;26.05;;;;;;;;;;5134605;28;20023;-74
2023/04/11 02:40:24;;;;;;;36.90;24.45;;;;;;;;;;5133879;28;20051;-74
2023/04/11 02:43:09;;;;;;;36.95;24.15;;;;;;;;;;5135121;28;20015;-74
2023/04/11 02:45:55;;;;;;;37.65;24.70;;;;;;;;;;5134224;28;20411;-74
2023/04/11 02:48:41;;;;;;;39.70;24.35;;;;;;;;;;5118717;28;20038;-74
2023/04/11 02:51:27;;;;;;;39.13;24.90;;;;;;;;;;5119665;28;20351;-74
2023/04/11 02:54:12;;;;;;;42.83;26.35;;;;;;;;;;5134500;28;20367;-75
2023/04/11 02:56:59;;;;;;;40.97;25.33;;;;;;;;;;5119547;28;20442;-73
2023/04/11 02:59:45;;;;;;;39.80;25.05;;;;;;;;;;5120473;28;20031;-75
2023/04/11 03:02:30;;;;;;;37.50;25.45;;;;;;;;;;5118757;28;20442;-75
2023/04/11 03:05:16;;;;;;;42.15;26.75;;;;;;;;;;5120832;28;20031;-74
2023/04/11 03:08:02;;;;;;;40.17;26.08;;;;;;;;;;5134121;28;20051;-74
2023/04/11 03:10:47;;;;;;;41.47;25.63;;;;;;;;;;5119150;28;20076;-74
2023/04/11 03:13:35;;;;;;;37.95;24.98;;;;;;;;;;5119676;27;20057;-74
2023/04/11 03:16:20;;;;;;;37.78;24.15;;;;;;;;;;5137498;27;20447;-73
2023/04/11 03:19:06;;;;;;;38.53;23.92;;;;;;;;;;5124493;27;20023;-75
2023/04/11 03:21:51;;;;;;;37.65;24.60;;;;;;;;;;5137784;27;20080;-74
2023/04/11 03:24:40;;;;;;;39.95;24.77;;;;;;;;;;5137554;27;20023;-74
2023/04/11 03:27:25;;;;;;;40.40;25.38;;;;;;;;;;5137344;27;20543;-75
2023/04/11 03:30:12;;;;;;;36.28;24.08;;;;;;;;;;5137364;27;20466;-75
2023/04/11 03:32:59;;;;;;;39.88;24.50;;;;;;;;;;5144920;27;20450;-72
2023/04/11 03:35:45;;;;;;;41.65;25.42;;;;;;;;;;5142124;27;20007;-76
2023/04/11 03:38:30;;;;;;;40.08;24.58;;;;;;;;;;5130068;27;20107;-74
2023/04/11 03:41:18;;;;;;;38.90;24.58;;;;;;;;;;5137164;27;20396;-74
2023/04/11 03:44:03;;;;;;;38.80;24.15;;;;;;;;;;5122130;27;20018;-74
2023/04/11 03:46:49;;;;;;;39.42;24.77;;;;;;;;;;5136816;27;20050;-74
2023/04/11 03:49:35;;;;;;;40.85;24.75;;;;;;;;;;5122625;27;20031;-74
2023/04/11 03:52:20;;;;;;;44.38;25.17;;;;;;;;;;5123830;27;20024;-73
2023/04/11 03:55:06;;;;;;;40.90;25.45;;;;;;;;;;5137838;27;20447;-74
2023/04/11 03:57:52;;;;;;;37.30;24.30;;;;;;;;;;5139933;27;20095;-74
2023/04/11 04:00:37;;;;;;;40.25;25.23;;;;;;;;;;5137304;27;20029;-75
2023/04/11 04:03:23;;;;;;;38.38;23.77;;;;;;;;;;5121725;27;20011;-74
2023/04/11 04:06:08;;;;;;;40.45;24.50;;;;;;;;;;5136881;27;20023;-74
2023/04/11 04:08:54;;;;;;;43.42;24.88;;;;;;;;;;5136047;27;20062;-75
2023/04/11 04:11:39;;;;;;;36.90;23.70;;;;;;;;;;5123499;27;20027;-74
2023/04/11 04:14:25;;;;;;;37.20;24.08;;;;;;;;;;5135896;27;20042;-74
2023/04/11 04:17:12;;;;;;;41.72;24.52;;;;;;;;;;5136577;27;20038;-74
2023/04/11 04:19:57;;;;;;;40.33;23.42;;;;;;;;;;5121353;27;20118;-74
2023/04/11 04:22:46;;;;;;;36.50;22.65;;;;;;;;;;5137039;27;20400;-73
2023/04/11 04:25:31;;;;;;;35.20;22.20;;;;;;;;;;5136697;27;20023;-74
2023/04/11 04:28:21;;;;;;;36.22;22.65;;;;;;;;;;5136871;27;20474;-75
2023/04/11 04:31:07;;;;;;;36.58;21.95;;;;;;;;;;5121119;27;20510;-74
2023/04/11 04:33:52;;;;;;;36.78;22.55;;;;;;;;;;5123237;27;20023;-74
2023/04/11 04:36:48;;;;;;;33.70;21.98;;;;;;;;;;5135718;27;20034;-74
2023/04/11 04:39:33;;;;;;;36.50;21.50;;;;;;;;;;5136248;27;20434;-75
2023/04/11 04:42:20;;;;;;;33.33;21.58;;;;;;;;;;5122079;27;20034;-74
2023/04/11 04:45:06;;;;;;;32.30;20.98;;;;;;;;;;5136592;27;20102;-75
2023/04/11 04:47:52;;;;;;;31.40;19.98;;;;;;;;;;5122559;27;20030;-74
2023/04/11 04:50:38;;;;;;;32.08;20.17;;;;;;;;;;5135928;27;20402;-74
2023/04/11 04:53:23;;;;;;;30.80;18.65;;;;;;;;;;5135995;27;20096;-74
2023/04/11 04:56:09;;;;;;;34.80;19.55;;;;;;;;;;5135267;27;20404;-74
2023/04/11 04:58:55;;;;;;;33.53;19.05;;;;;;;;;;5122029;27;20106;-74
2023/04/11 05:01:41;;;;;;;30.65;17.98;;;;;;;;;;5136481;27;20015;-74
2023/04/11 05:04:27;;;;;;;27.08;16.80;;;;;;;;;;5135817;27;20424;-74
2023/04/11 05:07:15;;;;;;;27.38;17.90;;;;;;;;;;5135972;27;20055;-74
2023/04/11 05:10:01;;;;;;;32.28;17.02;;;;;;;;;;5136559;27;20019;-74
2023/04/11 05:12:46;;;;;;;25.35;16.13;;;;;;;;;;5136400;27;20027;-75
2023/04/11 05:15:32;;;;;;;27.95;16.70;;;;;;;;;;5135501;27;20506;-73
2023/04/11 05:18:17;;;;;;;29.33;16.23;;;;;;;;;;5135478;27;20018;-74
2023/04/11 05:21:04;;;;;;;26.05;15.90;;;;;;;;;;5121823;27;20020;-75
2023/04/11 05:23:49;;;;;;;39.55;16.13;;;;;;;;;;5122764;27;20114;-76
2023/04/11 05:26:35;;;;;;;28.77;15.82;;;;;;;;;;5136497;27;20015;-75
2023/04/11 05:29:20;;;;;;;31.25;16.27;;;;;;;;;;5136166;27;20015;-74
2023/04/11 05:32:06;;;;;;;32.83;16.73;;;;;;;;;;5121764;27;20019;-74
2023/04/11 05:34:52;;;;;;;32.85;16.10;;;;;;;;;;5134817;27;20092;-73
2023/04/11 05:44:24;;;;;;;32.65;16.83;;;;;;;;;;5134306;27;20019;-72
2023/04/11 05:47:10;;;;;;;28.52;15.80;;;;;;;;;;5135908;27;20412;-73
2023/04/11 05:49:56;;;;;;;26.38;16.02;;;;;;;;;;5135220;27;20023;-73
2023/04/11 05:52:41;;;;;;;23.98;14.90;;;;;;;;;;5134655;27;20019;-72
2023/04/11 05:55:28;;;;;;;26.33;15.57;;;;;;;;;;5134658;27;20030;-74
2023/04/11 05:58:13;;;;;;;25.42;15.93;;;;;;;;;;5122721;27;20045;-72
2023/04/11 06:00:59;;;;;;;30.23;16.25;;;;;;;;;;5135126;27;20026;-71
2023/04/11 06:03:45;;;;;;;26.10;15.38;;;;;;;;;;5134493;27;20171;-71
2023/04/11 06:06:32;;;;;;;23.52;15.30;;;;;;;;;;5135520;27;20030;-72
2023/04/11 06:09:18;;;;;;;21.45;14.48;;;;;;;;;;5115309;28;20335;-71
2023/04/11 06:12:04;;;;;;;23.73;15.27;;;;;;;;;;5113985;28;20020;-70
2023/04/11 06:14:50;;;;;;;28.10;15.90;;;;;;;;;;5115453;28;20385;-70
2023/04/11 06:17:35;;;;;;;27.02;15.23;;;;;;;;;;5099402;28;20030;-70
2023/04/11 06:20:21;;;;;;;31.25;17.20;;;;;;;;;;5113840;28;20011;-71
2023/04/11 06:23:07;;;;;;;26.92;15.63;;;;;;;;;;5099125;28;20019;-70
2023/04/11 06:25:52;;;;;;;24.98;15.15;;;;;;;;;;5099613;28;20020;-70
2023/04/11 06:28:38;;;;;;;26.20;15.32;;;;;;;;;;5099184;28;20019;-69
2023/04/11 06:31:24;;;;;;;28.77;16.33;;;;;;;;;;5114137;28;20037;-71
2023/04/11 06:34:09;;;;;;;23.63;15.73;;;;;;;;;;5113992;28;20034;-70
2023/04/11 06:36:55;;;;;;;29.80;15.10;;;;;;;;;;5099496;28;20034;-70
2023/04/11 06:39:41;;;;;;;25.20;14.93;;;;;;;;;;5114281;28;20444;-71
2023/04/11 06:42:26;;;;;;;23.40;15.43;;;;;;;;;;5113926;28;20039;-72
2023/04/11 06:45:12;;;;;;;25.27;16.10;;;;;;;;;;5098991;28;20015;-70
2023/04/11 06:47:57;;;;;;;27.60;15.63;;;;;;;;;;5114300;28;20023;-71
2023/04/11 06:50:44;;;;;;;24.90;15.65;;;;;;;;;;5118270;28;20020;-70
2023/04/11 06:53:30;;;;;;;22.60;14.43;;;;;;;;;;5102870;28;20019;-71
2023/04/11 06:56:15;;;;;;;26.65;16.33;;;;;;;;;;5118866;28;20027;-72
2023/04/11 06:59:01;;;;;;;23.27;15.45;;;;;;;;;;5118429;28;20031;-71
2023/04/11 07:01:47;;;;;;;24.98;15.45;;;;;;;;;;5118143;28;20019;-71
2023/04/11 07:04:33;;;;;;;22.35;15.27;;;;;;;;;;5118487;28;20027;-72
2023/04/11 07:07:18;;;;;;;22.48;15.13;;;;;;;;;;5123816;27;20043;-72
2023/04/11 07:10:05;;;;;;;24.92;15.73;;;;;;;;;;5138959;27;20034;-70
2023/04/11 07:12:50;;;;;;;29.67;15.68;;;;;;;;;;5138828;27;20172;-71
2023/04/11 07:15:36;;;;;;;23.15;14.43;;;;;;;;;;5124180;27;20027;-72
2023/04/11 07:18:22;;;;;;;25.63;13.57;;;;;;;;;;5138098;27;20102;-73
2023/04/11 07:21:14;;;;;;;24.35;15.02;;;;;;;;;;5122452;27;20397;-71
2023/04/11 07:24:00;;;;;;;23.60;14.38;;;;;;;;;;5122337;27;20065;-71
2023/04/11 07:26:45;;;;;;;33.35;16.10;;;;;;;;;;5137606;27;20016;-71
2023/04/11 07:29:31;;;;;;;21.17;13.45;;;;;;;;;;5137551;27;20058;-71
2023/04/11 07:32:16;;;;;;;19.45;13.27;;;;;;;;;;5123016;27;20095;-70
2023/04/11 07:35:02;;;;;;;19.80;13.63;;;;;;;;;;5137177;27;20109;-70
2023/04/11 07:37:48;;;;;;;22.92;14.50;;;;;;;;;;5136869;27;20037;-70
2023/04/11 07:40:33;;;;;;;22.35;13.90;;;;;;;;;;5137351;27;20019;-72
2023/04/11 07:43:19;;;;;;;22.50;13.23;;;;;;;;;;5137130;27;20049;-72
2023/04/11 07:46:05;;;;;;;23.02;14.93;;;;;;;;;;5137864;27;20159;-70
2023/04/11 07:48:51;;;;;;;19.33;12.75;;;;;;;;;;5123073;27;20109;-71
2023/04/11 07:51:36;;;;;;;22.33;12.57;;;;;;;;;;5137542;27;20039;-71
2023/04/11 07:54:24;;;;;;;20.02;13.10;;;;;;;;;;5122919;27;20023;-72
2023/04/11 07:57:09;;;;;;;19.33;12.55;;;;;;;;;;5121797;27;20023;-71
2023/04/11 07:59:57;;;;;;;23.50;12.57;;;;;;;;;;5108413;27;20019;-71
2023/04/11 08:02:43;;;;;;;25.10;13.43;;;;;;;;;;5124240;27;20091;-71
2023/04/11 08:05:29;;;;;;;23.80;12.75;;;;;;;;;;5145355;27;20027;-71
2023/04/11 08:08:15;;;;;;;21.05;13.95;;;;;;;;;;5122034;27;20051;-70
2023/04/11 08:11:01;;;;;;;24.75;13.90;;;;;;;;;;5121777;27;20034;-70
2023/04/11 08:13:46;;;;;;;23.58;13.02;;;;;;;;;;5123454;27;20011;-71
2023/04/11 08:16:32;;;;;;;21.25;13.38;;;;;;;;;;5136835;27;20047;-70
2023/04/11 08:19:18;;;;;;;22.75;13.02;;;;;;;;;;5136646;27;20023;-71
2023/04/11 08:22:03;;;;;;;29.55;13.20;;;;;;;;;;5123117;27;20019;-72
2023/04/11 08:24:49;;;;;;;22.02;12.80;;;;;;;;;;5136731;27;20023;-69
2023/04/11 08:27:35;;;;;;;20.25;12.93;;;;;;;;;;5121556;27;20117;-70
2023/04/11 08:30:21;;;;;;;24.23;13.00;;;;;;;;;;5121175;27;20492;-69
2023/04/11 08:33:08;;;;;;;20.38;12.73;;;;;;;;;;5137017;27;20034;-70
2023/04/11 08:35:54;;;;;;;23.30;12.07;;;;;;;;;;5122964;27;20109;-70
2023/04/11 08:38:39;;;;;;;21.42;12.60;;;;;;;;;;5121941;27;20094;-71
2023/04/11 08:41:29;;;;;;;20.05;12.38;;;;;;;;;;5137112;27;20045;-70
2023/04/11 08:44:14;;;;;;;21.48;12.68;;;;;;;;;;5136498;27;20031;-71
2023/04/11 08:47:00;;;;;;;24.35;14.30;;;;;;;;;;5136382;27;20020;-71
2023/04/11 08:49:46;;;;;;;20.65;12.90;;;;;;;;;;5136052;27;20466;-72
2023/04/11 08:52:32;;;;;;;21.05;12.75;;;;;;;;;;5135492;27;20015;-72
2023/04/11 08:55:17;;;;;;;22.70;13.70;;;;;;;;;;5136024;27;20349;-71
2023/04/11 08:58:03;;;;;;;19.15;12.15;;;;;;;;;;5135766;27;20023;-71
2023/04/11 09:00:48;;;;;;;19.23;11.68;;;;;;;;;;5135513;27;20019;-72
2023/04/11 09:03:48;;;;;;;20.42;12.48;;;;;;;;;;5136185;27;20031;-72
2023/04/11 09:06:34;;;;;;;16.60;11.60;;;;;;;;;;5135900;27;20050;-71
2023/04/11 09:09:32;;;;;;;32.75;12.35;;;;;;;;;;5136008;27;20527;-71
2023/04/11 09:12:20;;;;;;;18.20;11.77;;;;;;;;;;5120480;27;20031;-71
2023/04/11 09:15:16;;;;;;;18.13;10.23;;;;;;;;;;5135603;27;20446;-71
2023/04/11 09:18:01;;;;;;;15.35;8.80;;;;;;;;;;5135338;27;20172;-71
2023/04/11 09:20:57;;;;;;;18.15;8.95;;;;;;;;;;5122481;27;20104;-71
2023/04/11 09:23:43;;;;;;;13.02;7.90;;;;;;;;;;5121562;27;20069;-72
2023/04/11 09:26:29;;;;;;;13.15;8.27;;;;;;;;;;5135560;27;20075;-71
2023/04/11 09:29:33;;;;;;;15.35;7.85;;;;;;;;;;5135071;27;20062;-70
2023/04/11 09:32:28;;;;;;;10.63;7.57;;;;;;;;;;5135013;27;20527;-71
2023/04/11 09:35:19;;;;;;;13.10;8.68;;;;;;;;;;5135259;27;20031;-70
2023/04/11 09:38:08;;;;;;;14.13;7.88;;;;;;;;;;5135309;27;20030;-72
2023/04/11 09:40:54;;;;;;;14.70;7.65;;;;;;;;;;5135650;27;20428;-71
2023/04/11 09:43:50;;;;;;;11.43;6.10;;;;;;;;;;5121386;27;20434;-71
2023/04/11 09:46:36;;;;;;;13.88;5.55;;;;;;;;;;5136102;27;20019;-71
2023/04/11 09:49:22;;;;;;;7.82;5.45;;;;;;;;;;5135763;27;20046;-71
2023/04/11 09:52:08;;;;;;;15.85;5.25;;;;;;;;;;5121462;27;20023;-71
2023/04/11 09:54:54;;;;;;;11.27;4.72;;;;;;;;;;5119247;27;20052;-72
2023/04/11 09:57:40;;;;;;;14.05;4.45;;;;;;;;;;5135379;27;20025;-72
2023/04/11 10:00:31;;;;;;;11.45;4.53;;;;;;;;;;5135417;27;20356;-70
2023/04/11 10:03:18;;;;;;;7.35;4.00;;;;;;;;;;5135068;27;20054;-72
2023/04/11 10:06:07;;;;;;;4.97;4.00;;;;;;;;;;5134350;27;20083;-72
2023/04/11 10:08:52;;;;;;;6.07;4.95;;;;;;;;;;5120686;27;20118;-71
2023/04/11 10:11:44;;;;;;;10.55;5.78;;;;;;;;;;5133821;27;20031;-71
2023/04/11 10:14:36;;;;;;;10.85;5.75;;;;;;;;;;5134483;27;20034;-71
2023/04/11 10:17:23;;;;;;;13.30;5.60;;;;;;;;;;5136123;27;20106;-72
2023/04/11 10:20:29;;;;;;;9.68;4.82;;;;;;;;;;5135222;27;20128;-70
2023/04/11 10:23:15;;;;;;;6.05;3.78;;;;;;;;;;5120636;27;20019;-71
2023/04/11 10:26:01;;;;;;;7.93;3.80;;;;;;;;;;5121038;27;20059;-71
2023/04/11 10:28:46;;;;;;;9.43;3.63;;;;;;;;;;5135302;27;20331;-71
2023/04/11 10:31:44;;;;;;;5.88;3.20;;;;;;;;;;5133813;28;20027;-71
2023/04/11 10:34:30;;;;;;;7.25;2.80;;;;;;;;;;5134691;28;20126;-71
2023/04/11 10:37:17;;;;;;;8.38;3.17;;;;;;;;;;5119156;28;20076;-71
2023/04/11 10:40:07;;;;;;;5.68;3.35;;;;;;;;;;5134393;28;20030;-71
2023/04/11 10:42:53;;;;;;;5.75;3.53;;;;;;;;;;5135006;28;20486;-73
2023/04/11 10:45:39;;;;;;;9.40;4.78;;;;;;;;;;5121289;28;20027;-71
2023/04/11 10:48:25;;;;;;;14.10;4.45;;;;;;;;;;5135047;28;20350;-72
2023/04/11 10:51:24;;;;;;;8.60;4.30;;;;;;;;;;5133864;28;20019;-72
2023/04/11 10:54:39;;;;;;;7.85;5.05;;;;;;;;;;5134601;28;20438;-71
2023/04/11 10:57:25;;;;;;;9.63;5.25;;;;;;;;;;5126849;28;20024;-71
2023/04/11 11:00:11;;;;;;;6.35;3.80;;;;;;;;;;5134123;28;20492;-71
2023/04/11 11:02:57;;;;;;;6.50;3.60;;;;;;;;;;5118495;28;20355;-71
2023/04/11 11:05:43;;;;;;;9.30;3.17;;;;;;;;;;5119718;28;20031;-70
2023/04/11 11:08:34;;;;;;;9.10;3.67;;;;;;;;;;5133312;28;20134;-70
2023/04/11 11:11:19;;;;;;;3.90;3.20;;;;;;;;;;5134010;28;20455;-70
2023/04/11 11:14:05;;;;;;;6.85;4.80;;;;;;;;;;5134445;28;20049;-71
2023/04/11 11:16:50;;;;;;;8.00;5.55;;;;;;;;;;5134104;28;20023;-71
2023/04/11 11:19:36;;;;;;;6.75;5.40;;;;;;;;;;5119765;28;20015;-70
2023/04/11 11:22:24;;;;;;;8.43;6.45;;;;;;;;;;5120595;28;20020;-70
2023/04/11 11:25:10;;;;;;;9.60;7.30;;;;;;;;;;5119598;28;20020;-70
2023/04/11 11:28:06;;;;;;;13.45;8.90;;;;;;;;;;5134268;28;20431;-70
2023/04/11 11:30:52;;;;;;;11.95;8.55;;;;;;;;;;5134157;28;20046;-71
2023/04/11 11:33:39;;;;;;;14.05;10.55;;;;;;;;;;5119728;28;20110;-71
2023/04/11 11:36:25;;;;;;;15.45;10.60;;;;;;;;;;5123684;27;20103;-71
2023/04/11 11:39:13;;;;;;;17.08;12.13;;;;;;;;;;5138402;27;20100;-70
2023/04/11 11:41:59;;;;;;;12.50;9.00;;;;;;;;;;5137835;27;20346;-70
2023/04/11 11:44:44;;;;;;;10.05;7.07;;;;;;;;;;5136979;27;20408;-71
2023/04/11 11:47:40;;;;;;;13.80;7.20;;;;;;;;;;5124717;27;20034;-71
2023/04/11 11:50:26;;;;;;;12.15;7.85;;;;;;;;;;5123839;27;20023;-71
2023/04/11 11:53:13;;;;;;;10.23;7.47;;;;;;;;;;5137630;27;20019;-71
2023/04/11 11:55:59;;;;;;;10.35;7.43;;;;;;;;;;5124037;27;20015;-71
2023/04/11 11:58:44;;;;;;;11.65;7.93;;;;;;;;;;5124148;27;20043;-70
2023/04/11 12:01:31;;;;;;;9.70;7.40;;;;;;;;;;5137502;27;20026;-71
2023/04/11 12:04:18;;;;;;;11.02;7.75;;;;;;;;;;5137347;27;20458;-71
2023/04/11 12:07:07;;;;;;;8.00;6.55;;;;;;;;;;5137630;27;20078;-70
2023/04/11 12:09:55;;;;;;;14.75;10.00;;;;;;;;;;5137417;27;20023;-73
2023/04/11 12:12:42;;;;;;;12.52;8.80;;;;;;;;;;5122079;27;20046;-71
2023/04/11 12:15:27;;;;;;;13.50;8.65;;;;;;;;;;5137800;27;20388;-71
2023/04/11 12:18:13;;;;;;;12.98;8.18;;;;;;;;;;5136967;27;20461;-71
2023/04/11 12:20:59;;;;;;;11.02;8.55;;;;;;;;;;5137702;27;20027;-71
2023/04/11 12:23:44;;;;;;;15.30;9.50;;;;;;;;;;5137117;27;20359;-71
2023/04/11 12:26:30;;;;;;;13.35;9.90;;;;;;;;;;5136570;27;20050;-71
2023/04/11 12:29:16;;;;;;;15.68;10.25;;;;;;;;;;5136139;27;20366;-72
2023/04/11 12:32:02;;;;;;;13.95;9.63;;;;;;;;;;5136769;27;20023;-72
2023/04/11 12:34:48;;;;;;;18.85;11.57;;;;;;;;;;5137513;27;20092;-71
2023/04/11 12:37:34;;;;;;;14.48;10.38;;;;;;;;;;5136140;27;20023;-70
2023/04/11 12:40:19;;;;;;;15.70;10.30;;;;;;;;;;5136803;27;20098;-71
2023/04/11 12:43:05;;;;;;;13.70;10.05;;;;;;;;;;5136261;27;20019;-71
2023/04/11 12:45:52;;;;;;;15.63;10.30;;;;;;;;;;5135858;27;20034;-70
2023/04/11 12:48:37;;;;;;;14.18;10.35;;;;;;;;;;5136508;27;20027;-71
2023/04/11 12:51:23;;;;;;;17.13;11.13;;;;;;;;;;5122836;27;20027;-71
2023/04/11 12:54:08;;;;;;;15.68;10.63;;;;;;;;;;5136187;27;20023;-71
2023/04/11 12:56:56;;;;;;;22.27;14.30;;;;;;;;;;5108267;27;20019;-71
2023/04/11 12:59:42;;;;;;;16.50;12.05;;;;;;;;;;5120744;27;20026;-72
2023/04/11 13:02:28;;;;;;;14.50;10.57;;;;;;;;;;5121252;27;20446;-72
2023/04/11 13:05:15;;;;;;;15.80;10.82;;;;;;;;;;5122809;27;20023;-71
2023/04/11 13:08:01;;;;;;;14.27;11.18;;;;;;;;;;5136565;27;20363;-70
2023/04/11 13:10:47;;;;;;;15.18;10.88;;;;;;;;;;5136047;27;20023;-72
2023/04/11 13:13:32;;;;;;;16.77;11.25;;;;;;;;;;5135628;27;20084;-72
2023/04/11 13:16:18;;;;;;;17.50;11.32;;;;;;;;;;5135125;27;20355;-73
2023/04/11 13:19:03;;;;;;;16.90;11.50;;;;;;;;;;5135651;27;20458;-71
2023/04/11 13:21:49;;;;;;;17.13;11.68;;;;;;;;;;5136451;27;20019;-72
2023/04/11 13:24:35;;;;;;;17.73;11.77;;;;;;;;;;5121549;27;20030;-71
2023/04/11 13:27:20;;;;;;;16.52;11.35;;;;;;;;;;5121585;27;20030;-71
2023/04/11 13:30:07;;;;;;;13.65;10.20;;;;;;;;;;5136036;27;20019;-70
2023/04/11 13:32:52;;;;;;;15.52;11.50;;;;;;;;;;5134842;27;20038;-70
2023/04/11 13:35:38;;;;;;;19.45;12.30;;;;;;;;;;5134895;27;20059;-71
2023/04/11 13:38:24;;;;;;;18.90;13.00;;;;;;;;;;5135261;27;20023;-71
2023/04/11 13:41:10;;;;;;;15.45;11.70;;;;;;;;;;5135320;27;20019;-72
2023/04/11 13:43:55;;;;;;;17.35;11.70;;;;;;;;;;5136148;27;20020;-70
2023/04/11 13:46:41;;;;;;;16.58;12.05;;;;;;;;;;5119640;27;20118;-71
2023/04/11 13:49:26;;;;;;;15.60;11.15;;;;;;;;;;5134887;27;20023;-71
2023/04/11 13:52:12;;;;;;;16.73;10.98;;;;;;;;;;5134386;27;20098;-71
2023/04/11 13:54:57;;;;;;;16.40;11.63;;;;;;;;;;5135010;27;20083;-72
2023/04/11 13:57:43;;;;;;;16.00;11.00;;;;;;;;;;5135169;27;20055;-71
2023/04/11 14:00:29;;;;;;;16.10;11.15;;;;;;;;;;5120974;27;20018;-71
2023/04/11 14:03:15;;;;;;;16.85;12.18;;;;;;;;;;5134878;27;20080;-71
2023/04/11 14:06:02;;;;;;;18.90;13.32;;;;;;;;;;5135640;27;20416;-70
2023/04/11 14:08:47;;;;;;;20.35;14.48;;;;;;;;;;5134690;27;20416;-71
2023/04/11 14:11:33;;;;;;;21.88;14.30;;;;;;;;;;5134692;27;20027;-72
2023/04/11 14:14:18;;;;;;;19.05;13.02;;;;;;;;;;5145094;27;20055;-72
2023/04/11 14:17:04;;;;;;;19.98;14.35;;;;;;;;;;5140373;27;20012;-71
2023/04/11 14:19:49;;;;;;;19.35;13.57;;;;;;;;;;5143321;27;20021;-72
2023/04/11 14:22:35;;;;;;;16.92;12.18;;;;;;;;;;5122152;27;20042;-71
2023/04/11 14:25:21;;;;;;;18.80;13.20;;;;;;;;;;5133912;27;20026;-71
2023/04/11 14:28:07;;;;;;;25.20;15.25;;;;;;;;;;5120868;27;20110;-71
2023/04/11 14:30:52;;;;;;;20.77;13.82;;;;;;;;;;5134814;27;20098;-71
2023/04/11 14:33:38;;;;;;;22.20;15.07;;;;;;;;;;5134105;28;20083;-70
2023/04/11 14:36:24;;;;;;;21.13;15.20;;;;;;;;;;5120506;28;20023;-71
2023/04/11 14:39:09;;;;;;;23.65;15.75;;;;;;;;;;5120664;28;20061;-71
2023/04/11 14:41:55;;;;;;;22.52;15.82;;;;;;;;;;5121738;28;20451;-71
2023/04/11 14:44:40;;;;;;;30.08;18.52;;;;;;;;;;5134209;28;20099;-72
2023/04/11 14:47:26;;;;;;;26.08;17.95;;;;;;;;;;5134794;28;20023;-69
2023/04/11 14:50:12;;;;;;;28.08;17.77;;;;;;;;;;5134078;28;20023;-70
2023/04/11 14:52:57;;;;;;;23.83;16.35;;;;;;;;;;5119754;28;20038;-70
2023/04/11 14:55:43;;;;;;;29.33;18.80;;;;;;;;;;5137729;28;20436;-70
2023/04/11 14:58:29;;;;;;;28.60;17.63;;;;;;;;;;5136610;28;20041;-72
2023/04/11 15:01:17;;;;;;;34.20;20.13;;;;;;;;;;5121745;28;20022;-70
2023/04/11 15:04:03;;;;;;;26.90;18.02;;;;;;;;;;5134237;28;20019;-71
2023/04/11 15:06:49;;;;;;;28.80;20.02;;;;;;;;;;5121208;28;20039;-71
2023/04/11 15:09:34;;;;;;;31.60;20.85;;;;;;;;;;5136474;27;20443;-70
2023/04/11 15:12:20;;;;;;;29.25;19.83;;;;;;;;;;5140388;27;20435;-69
2023/04/11 15:15:08;;;;;;;29.23;18.65;;;;;;;;;;5142588;27;20023;-72
2023/04/11 15:18:13;;;;;;;27.98;18.15;;;;;;;;;;5128244;27;20083;-72
2023/04/11 15:20:59;;;;;;;27.75;17.58;;;;;;;;;;5124966;27;20026;-73
2023/04/11 15:23:45;;;;;;;23.27;17.15;;;;;;;;;;5138295;27;20107;-71
2023/04/11 15:26:31;;;;;;;25.08;16.92;;;;;;;;;;5122830;27;20046;-69
2023/04/11 15:29:17;;;;;;;24.40;17.20;;;;;;;;;;5138020;27;20458;-70
2023/04/11 15:32:02;;;;;;;25.98;17.30;;;;;;;;;;5137789;27;20015;-70
2023/04/11 15:34:49;;;;;;;26.08;19.52;;;;;;;;;;5137636;27;20019;-70
2023/04/11 15:37:35;;;;;;;28.52;19.77;;;;;;;;;;5138552;27;20105;-70
2023/04/11 15:40:20;;;;;;;28.48;17.92;;;;;;;;;;5123359;27;20057;-71
2023/04/11 15:43:07;;;;;;;25.98;17.40;;;;;;;;;;5137905;27;20030;-71
2023/04/11 15:45:53;;;;;;;26.77;17.70;;;;;;;;;;5123023;27;20101;-70
2023/04/11 15:48:39;;;;;;;24.95;17.13;;;;;;;;;;5138506;27;20031;-71
2023/04/11 15:51:26;;;;;;;30.60;18.92;;;;;;;;;;5140170;27;20023;-69
2023/04/11 15:54:11;;;;;;;27.33;17.52;;;;;;;;;;5140118;27;20083;-70
2023/04/11 15:56:57;;;;;;;26.33;17.80;;;;;;;;;;5142446;27;20041;-69
2023/04/11 15:59:42;;;;;;;34.58;22.15;;;;;;;;;;5141947;27;20373;-70
2023/04/11 16:02:28;;;;;;;32.30;20.75;;;;;;;;;;5140573;27;20110;-70
2023/04/11 16:05:14;;;;;;;28.08;18.80;;;;;;;;;;5140745;27;20015;-70
2023/04/11 16:08:00;;;;;;;23.40;16.85;;;;;;;;;;5142286;27;20070;-71
2023/04/11 16:10:45;;;;;;;25.88;16.95;;;;;;;;;;5139916;27;20094;-70
2023/04/11 16:13:31;;;;;;;25.60;16.67;;;;;;;;;;5141306;27;20110;-71
2023/04/11 16:16:17;;;;;;;23.23;16.58;;;;;;;;;;5140847;27;20023;-70
2023/04/11 16:19:02;;;;;;;24.35;17.42;;;;;;;;;;5141131;27;20011;-70
2023/04/11 16:21:48;;;;;;;24.77;17.27;;;;;;;;;;5128344;27;20015;-70